Time;durP1;ratioP1;P1;durP2;ratioP2;P2;SDS_P1;SDS_P2;PMS_P1;PMS_P2;Temp;Humidity;BMP_temperature;BMP_pressure;BME280_temperature;BME280_humidity;BME280_pressure;Samples;Min_cycle;Max_cycle;Signal;HPM_P1;HPM_P2
2022/10/28 00:01:51;;;;;;;;;;;;;;;15.36;83.56;101701.78;5053443;28;19923;-61
2022/10/28 00:04:16;;;;;;;;;;;;;;;15.35;83.26;101691.25;5047594;28;19917;-61
2022/10/28 00:06:41;;;;;;;;;;;;;;;15.30;83.55;101693.59;5050356;28;19917;-61
2022/10/28 00:09:07;;;;;;;;;;;;;;;15.33;83.37;101693.28;5042845;28;19917;-61
2022/10/28 00:11:33;;;;;;;;;;;;;;;15.30;83.17;101691.75;5046202;28;19964;-61
2022/10/28 00:13:59;;;;;;;;;;;;;;;15.27;83.24;101688.63;5050505;28;19923;-60
2022/10/28 00:16:26;;;;;;;;;;;;;;;15.25;83.16;101691.47;5048452;28;19984;-61
2022/10/28 00:18:52;;;;;;;;;;;;;;;15.22;83.03;101688.34;5046564;28;20024;-61
2022/10/28 00:21:32;;;;;;;;;;;;;;;15.18;83.43;101690.53;5043960;28;19917;-61
2022/10/28 00:23:57;;;;;;;;;;;;;;;15.15;83.34;101689.06;5042949;28;20049;-61
2022/10/28 00:26:24;;;;;;;;;;;;;;;15.11;83.53;101685.09;5048108;28;20597;-61
2022/10/28 00:28:51;;;;;;;;;;;;;;;15.08;83.14;101685.44;5044366;28;20451;-61
2022/10/28 00:31:17;;;;;;;;;;;;;;;15.03;83.28;101685.13;5043642;28;20043;-61
2022/10/28 00:33:42;;;;;;;;;;;;;;;14.99;83.05;101689.16;5050098;28;20407;-61
2022/10/28 00:36:10;;;;;;;;;;;;;;;14.98;83.11;101690.19;5052855;28;19944;-61
2022/10/28 00:38:35;;;;;;;;;;;;;;;14.96;83.28;101689.53;5049830;28;19921;-60
2022/10/28 00:41:01;;;;;;;;;;;;;;;14.97;82.98;101685.84;5047762;28;20253;-61
2022/10/28 00:43:33;;;;;;;;;;;;;;;15.00;83.19;101685.50;5055442;28;19921;-61
2022/10/28 00:45:58;;;;;;;;;;;;;;;14.98;84.04;101674.13;5046370;28;20026;-61
2022/10/28 00:48:23;;;;;;;;;;;;;;;15.02;84.21;101686.13;5050109;28;20020;-60
2022/10/28 00:50:52;;;;;;;;;;;;;;;15.03;84.08;101671.75;5045469;28;19916;-61
2022/10/28 00:53:20;;;;;;;;;;;;;;;15.04;84.05;101668.09;5045747;28;19921;-59
2022/10/28 00:55:46;;;;;;;;;;;;;;;15.05;84.09;101666.25;5054483;28;19932;-60
2022/10/28 00:58:12;;;;;;;;;;;;;;;15.05;83.78;101659.06;5049607;28;19924;-61
2022/10/28 01:00:38;;;;;;;;;;;;;;;15.05;84.18;101659.06;5048146;28;19917;-59
2022/10/28 01:03:03;;;;;;;;;;;;;;;15.06;84.16;101657.22;5053499;28;19934;-61
2022/10/28 01:05:30;;;;;;;;;;;;;;;15.07;83.97;101650.84;5053761;28;19924;-61
2022/10/28 01:07:58;;;;;;;;;;;;;;;15.06;84.20;101652.69;5048152;28;20372;-60
2022/10/28 01:10:27;;;;;;;;;;;;;;;15.03;84.02;101646.84;5045834;28;19947;-60
2022/10/28 01:13:02;;;;;;;;;;;;;;;15.00;83.99;101642.69;5050540;28;20387;-61
2022/10/28 01:15:36;;;;;;;;;;;;;;;14.97;83.95;101651.06;5049788;28;19925;-61
2022/10/28 01:18:01;;;;;;;;;;;;;;;14.92;83.75;101640.09;5051194;28;19921;-61
2022/10/28 01:20:26;;;;;;;;;;;;;;;14.89;83.86;101648.47;5049283;28;19982;-61
2022/10/28 01:23:10;;;;;;;;;;;;;;;14.84;83.70;101646.34;5052769;28;19925;-61
2022/10/28 01:25:38;;;;;;;;;;;;;;;14.80;83.57;101647.72;5050321;28;19916;-61
2022/10/28 01:28:22;;;;;;;;;;;;;;;14.77;83.48;101644.56;5057911;28;19924;-61
2022/10/28 01:31:04;;;;;;;;;;;;;;;14.73;83.87;101637.88;5043971;28;19994;-61
2022/10/28 01:33:40;;;;;;;;;;;;;;;14.71;83.88;101634.56;5050221;28;19916;-60
2022/10/28 01:36:24;;;;;;;;;;;;;;;14.70;83.71;101639.06;5047927;28;20404;-61
2022/10/28 01:38:54;;;;;;;;;;;;;;;14.68;83.65;101633.06;5052036;28;19924;-61
2022/10/28 01:41:28;;;;;;;;;;;;;;;14.66;83.73;101634.25;5043302;28;19954;-61
2022/10/28 01:43:53;;;;;;;;;;;;;;;14.61;83.92;101636.66;5049508;28;19917;-60
2022/10/28 01:46:19;;;;;;;;;;;;;;;14.56;83.78;101634.50;5048985;28;19924;-60
2022/10/28 01:48:47;;;;;;;;;;;;;;;14.50;83.52;101633.38;5046764;28;19924;-60
2022/10/28 01:51:15;;;;;;;;;;;;;;;14.47;83.92;101636.41;5039445;28;19917;-61
2022/10/28 01:53:43;;;;;;;;;;;;;;;14.44;83.80;101635.91;5050060;28;19929;-61
2022/10/28 01:56:11;;;;;;;;;;;;;;;14.43;83.74;101634.25;5046807;28;19921;-60
2022/10/28 01:58:37;;;;;;;;;;;;;;;14.41;84.06;101630.88;5047967;28;19923;-60
2022/10/28 02:01:05;;;;;;;;;;;;;;;14.40;83.93;101630.06;5044418;28;19916;-60
2022/10/28 02:03:30;;;;;;;;;;;;;;;14.37;84.11;101616.22;5047626;28;19924;-61
2022/10/28 02:05:57;;;;;;;;;;;;;;;14.40;84.17;101624.69;5037899;28;19933;-59
2022/10/28 02:08:25;;;;;;;;;;;;;;;14.41;83.94;101621.03;5047772;28;19927;-60
2022/10/28 02:10:59;;;;;;;;;;;;;;;14.41;84.09;101625.53;5042219;28;20395;-60
2022/10/28 02:13:29;;;;;;;;;;;;;;;14.43;84.07;101629.72;5045574;28;19962;-59
2022/10/28 02:16:20;;;;;;;;;;;;;;;14.45;83.96;101627.72;5046751;28;19924;-60
2022/10/28 02:18:59;;;;;;;;;;;;;;;14.46;84.29;101623.22;5025465;28;19921;-60
2022/10/28 02:21:27;;;;;;;;;;;;;;;14.45;84.37;101621.53;5045541;28;19917;-60
2022/10/28 02:23:58;;;;;;;;;;;;;;;14.44;84.49;101625.22;5046209;28;19920;-60
2022/10/28 02:26:45;;;;;;;;;;;;;;;14.43;84.49;101618.22;5049986;28;19920;-61
2022/10/28 02:29:16;;;;;;;;;;;;;;;14.41;84.31;101631.72;5035687;28;19995;-59
2022/10/28 02:31:53;;;;;;;;;;;;;;;14.41;84.27;101626.38;5043324;28;19917;-60
2022/10/28 02:34:23;;;;;;;;;;;;;;;14.40;84.65;101621.19;5041743;28;19917;-60
2022/10/28 02:36:51;;;;;;;;;;;;;;;14.38;84.24;101616.03;5050274;28;19923;-60
2022/10/28 02:39:17;;;;;;;;;;;;;;;14.38;84.65;101616.03;5048394;28;19921;-61
2022/10/28 02:41:45;;;;;;;;;;;;;;;14.38;84.42;101610.69;5056657;28;19982;-60
2022/10/28 02:44:16;;;;;;;;;;;;;;;14.39;84.69;101617.69;5046651;28;19920;-60
2022/10/28 02:46:44;;;;;;;;;;;;;;;14.39;84.54;101612.34;5051094;28;19912;-61
2022/10/28 02:49:13;;;;;;;;;;;;;;;14.38;84.86;101613.38;5038029;28;19920;-61
2022/10/28 02:51:47;;;;;;;;;;;;;;;14.38;84.69;101613.38;5047797;28;19917;-60
2022/10/28 02:54:17;;;;;;;;;;;;;;;14.38;84.55;101617.88;5049881;28;19912;-60
2022/10/28 02:56:51;;;;;;;;;;;;;;;14.39;84.62;101617.69;5048172;28;19956;-61
2022/10/28 02:59:17;;;;;;;;;;;;;;;14.40;84.82;101613.19;5043111;28;19916;-61
2022/10/28 03:01:42;;;;;;;;;;;;;;;14.41;85.04;101614.84;5046174;28;20392;-61
2022/10/28 03:04:07;;;;;;;;;;;;;;;14.43;84.68;101611.03;5051437;28;19912;-60
2022/10/28 03:06:32;;;;;;;;;;;;;;;14.44;84.77;101604.66;5048028;28;19913;-60
2022/10/28 03:08:57;;;;;;;;;;;;;;;14.44;84.95;101602.00;5046428;28;19944;-60
2022/10/28 03:11:22;;;;;;;;;;;;;;;14.45;84.84;101608.16;5047383;28;19967;-60
2022/10/28 03:13:48;;;;;;;;;;;;;;;14.44;84.72;101612.69;5045088;28;19924;-59
2022/10/28 03:16:13;;;;;;;;;;;;;;;14.44;84.64;101604.66;5047754;28;20538;-60
2022/10/28 03:18:38;;;;;;;;;;;;;;;14.44;84.83;101596.66;5052171;28;19952;-60
2022/10/28 03:21:03;;;;;;;;;;;;;;;14.44;84.82;101611.84;5030793;28;20346;-61
2022/10/28 03:23:28;;;;;;;;;;;;;;;14.41;84.69;101605.00;5047139;28;19917;-60
2022/10/28 03:25:54;;;;;;;;;;;;;;;14.40;84.92;101608.66;5044684;28;19916;-61
2022/10/28 03:28:19;;;;;;;;;;;;;;;14.42;84.93;101600.47;5048610;28;19959;-60
2022/10/28 03:30:44;;;;;;;;;;;;;;;14.41;84.73;101599.66;5043120;28;19921;-60
2022/10/28 03:33:09;;;;;;;;;;;;;;;14.40;84.94;101608.66;5054136;28;19921;-61
2022/10/28 03:35:34;;;;;;;;;;;;;;;14.40;84.72;101599.81;5045746;28;19975;-61
2022/10/28 03:38:00;;;;;;;;;;;;;;;14.38;85.09;101597.34;5051734;28;20019;-60
2022/10/28 03:40:25;;;;;;;;;;;;;;;14.39;85.18;101595.50;5056774;28;19917;-60
2022/10/28 03:42:50;;;;;;;;;;;;;;;14.40;85.13;101599.81;5037093;28;20059;-60
2022/10/28 03:45:15;;;;;;;;;;;;;;;14.39;85.29;101590.97;5052425;28;20380;-60
2022/10/28 03:47:40;;;;;;;;;;;;;;;14.39;84.98;101590.16;5047255;28;19947;-61
2022/10/28 03:50:06;;;;;;;;;;;;;;;14.40;85.21;101594.47;5048167;28;19920;-61
2022/10/28 03:52:31;;;;;;;;;;;;;;;14.41;85.26;101594.31;5048784;28;19966;-60
2022/10/28 03:54:56;;;;;;;;;;;;;;;14.40;84.82;101589.13;5053000;28;19967;-59
2022/10/28 03:57:21;;;;;;;;;;;;;;;14.37;84.97;101598.34;5052451;28;20376;-60
2022/10/28 03:59:46;;;;;;;;;;;;;;;14.36;85.13;101599.34;5047552;28;19917;-60
2022/10/28 04:02:14;;;;;;;;;;;;;;;14.34;84.76;101595.19;5044768;28;19951;-60
2022/10/28 04:04:39;;;;;;;;;;;;;;;14.31;84.94;101593.72;5043643;28;19921;-61
2022/10/28 04:07:04;;;;;;;;;;;;;;;14.28;85.21;101591.41;5052058;28;19998;-61
2022/10/28 04:09:29;;;;;;;;;;;;;;;14.26;85.35;101590.75;5041412;28;20000;-59
2022/10/28 04:11:55;;;;;;;;;;;;;;;14.24;85.06;101595.44;5052078;28;19945;-60
2022/10/28 04:14:20;;;;;;;;;;;;;;;14.22;85.33;101597.44;5030006;28;19952;-60
2022/10/28 04:16:45;;;;;;;;;;;;;;;14.19;84.97;101590.63;5047944;28;19967;-60
2022/10/28 04:19:10;;;;;;;;;;;;;;;14.18;84.97;101594.31;5046986;28;19917;-60
2022/10/28 04:21:35;;;;;;;;;;;;;;;14.16;85.21;101598.13;5048972;28;19924;-60
2022/10/28 04:24:00;;;;;;;;;;;;;;;14.16;85.33;101590.94;5046236;28;19963;-61
2022/10/28 04:26:26;;;;;;;;;;;;;;;14.16;85.12;101595.44;5046561;28;19921;-59
2022/10/28 04:28:51;;;;;;;;;;;;;;;14.15;85.10;101594.63;5040886;28;19973;-59
2022/10/28 04:31:16;;;;;;;;;;;;;;;14.15;85.03;101588.44;5044576;28;19925;-59
2022/10/28 04:33:41;;;;;;;;;;;;;;;14.15;85.23;101593.78;5029097;28;20561;-58
2022/10/28 04:36:06;;;;;;;;;;;;;;;14.15;85.48;101588.44;5038149;28;19927;-59
2022/10/28 04:38:32;;;;;;;;;;;;;;;14.15;85.58;101593.78;5045471;28;19923;-58
2022/10/28 04:40:57;;;;;;;;;;;;;;;14.16;85.16;101592.78;5044939;28;19964;-58
2022/10/28 04:43:22;;;;;;;;;;;;;;;14.16;85.28;101600.78;5041250;28;19917;-58
2022/10/28 04:45:47;;;;;;;;;;;;;;;14.15;85.21;101593.78;5042760;28;19924;-58
2022/10/28 04:48:13;;;;;;;;;;;;;;;14.12;85.35;101589.63;5042508;28;19920;-59
2022/10/28 04:50:38;;;;;;;;;;;;;;;14.10;85.48;101586.31;5044691;28;19940;-59
2022/10/28 04:53:03;;;;;;;;;;;;;;;14.08;85.34;101588.31;5045048;28;19924;-59
2022/10/28 04:55:28;;;;;;;;;;;;;;;14.08;85.41;101584.81;5045691;28;19917;-58
2022/10/28 04:57:54;;;;;;;;;;;;;;;14.08;85.35;101587.50;5043149;28;19928;-58
2022/10/28 05:00:19;;;;;;;;;;;;;;;14.06;85.22;101585.00;5044739;28;20110;-58
2022/10/28 05:02:44;;;;;;;;;;;;;;;14.09;85.50;101597.16;5044785;28;19940;-59
2022/10/28 05:05:09;;;;;;;;;;;;;;;14.10;85.60;101590.81;5055077;28;19931;-59
2022/10/28 05:07:34;;;;;;;;;;;;;;;14.10;85.68;101585.47;5041071;28;20909;-58
2022/10/28 05:09:59;;;;;;;;;;;;;;;14.11;85.47;101579.13;5045435;28;19917;-59
2022/10/28 05:12:25;;;;;;;;;;;;;;;14.12;85.48;101578.94;5045465;28;19928;-58
2022/10/28 05:14:50;;;;;;;;;;;;;;;14.12;85.20;101578.94;5051694;28;20438;-59
2022/10/28 05:17:15;;;;;;;;;;;;;;;14.13;85.48;101580.59;5054626;28;19916;-58
2022/10/28 05:19:44;;;;;;;;;;;;;;;14.14;85.66;101589.44;5049936;28;19924;-58
2022/10/28 05:22:09;;;;;;;;;;;;;;;14.15;85.42;101591.13;5049205;28;19916;-59
2022/10/28 05:24:34;;;;;;;;;;;;;;;14.16;85.85;101592.78;5050906;28;20418;-58
2022/10/28 05:26:59;;;;;;;;;;;;;;;14.15;85.85;101589.28;5047245;28;20341;-59
2022/10/28 05:29:24;;;;;;;;;;;;;;;14.16;85.51;101585.59;5054286;28;19923;-59
2022/10/28 05:31:50;;;;;;;;;;;;;;;14.15;85.72;101575.09;5049569;28;19921;-59
2022/10/28 05:34:15;;;;;;;;;;;;;;;14.15;85.35;101572.41;5055931;28;20385;-59
2022/10/28 05:36:40;;;;;;;;;;;;;;;14.15;85.47;101583.09;5049522;28;19929;-59
2022/10/28 05:39:05;;;;;;;;;;;;;;;14.13;85.60;101577.94;5048492;28;19941;-58
2022/10/28 05:41:30;;;;;;;;;;;;;;;14.12;85.87;101573.59;5045036;28;19997;-60
2022/10/28 05:43:56;;;;;;;;;;;;;;;14.11;85.77;101576.44;5049064;28;19951;-59
2022/10/28 05:46:21;;;;;;;;;;;;;;;14.12;85.87;101573.59;5052078;28;19917;-59
2022/10/28 05:48:46;;;;;;;;;;;;;;;14.12;86.00;101580.78;5043215;28;20023;-58
2022/10/28 05:51:11;;;;;;;;;;;;;;;14.10;85.73;101575.63;5039960;28;20292;-59
2022/10/28 05:53:37;;;;;;;;;;;;;;;14.11;85.92;101579.13;5046938;28;19919;-58
2022/10/28 05:56:02;;;;;;;;;;;;;;;14.12;85.54;101572.78;5048945;28;19920;-59
2022/10/28 05:58:27;;;;;;;;;;;;;;;14.10;85.54;101570.28;5048462;28;19920;-58
2022/10/28 06:00:52;;;;;;;;;;;;;;;14.09;85.71;101573.13;5049193;28;19912;-59
2022/10/28 06:03:17;;;;;;;;;;;;;;;14.07;85.16;101575.97;5046196;28;19917;-59
2022/10/28 06:05:43;;;;;;;;;;;;;;;14.06;85.43;101576.16;5055319;28;20047;-59
2022/10/28 06:08:09;;;;;;;;;;;;;;;14.03;85.09;101572.00;5047968;28;20399;-58
2022/10/28 06:10:35;;;;;;;;;;;;;;;14.02;85.78;101578.34;5049872;28;19952;-59
2022/10/28 06:13:00;;;;;;;;;;;;;;;14.02;85.52;101582.84;5049182;28;20431;-59
2022/10/28 06:15:25;;;;;;;;;;;;;;;14.02;85.46;101582.84;5046519;28;19917;-59
2022/10/28 06:17:50;;;;;;;;;;;;;;;14.01;85.49;101578.53;5047308;28;20346;-60
2022/10/28 06:20:16;;;;;;;;;;;;;;;14.01;85.34;101586.53;5051727;28;20576;-59
2022/10/28 06:22:48;;;;;;;;;;;;;;;14.01;85.44;101590.03;5046090;28;19952;-58
2022/10/28 06:25:13;;;;;;;;;;;;;;;14.01;85.52;101589.19;5044030;28;20031;-60
2022/10/28 06:27:38;;;;;;;;;;;;;;;14.01;85.57;101597.22;5053955;28;20150;-58
2022/10/28 06:30:03;;;;;;;;;;;;;;;14.01;85.53;101589.19;5043207;28;19920;-60
2022/10/28 06:32:29;;;;;;;;;;;;;;;14.01;85.21;101591.88;5045019;28;20066;-58
2022/10/28 06:34:54;;;;;;;;;;;;;;;14.01;85.49;101599.88;5047828;28;19924;-58
2022/10/28 06:37:19;;;;;;;;;;;;;;;13.99;85.68;101585.88;5045604;28;20383;-58
2022/10/28 06:39:44;;;;;;;;;;;;;;;13.97;85.56;101590.56;5044624;28;19924;-59
2022/10/28 06:42:09;;;;;;;;;;;;;;;13.97;85.48;101596.75;5044744;28;19973;-59
2022/10/28 06:44:35;;;;;;;;;;;;;;;13.96;85.64;101595.06;5040984;28;19917;-59
2022/10/28 06:47:00;;;;;;;;;;;;;;;13.97;85.84;101591.41;5043004;28;19913;-58
2022/10/28 06:49:26;;;;;;;;;;;;;;;13.97;85.57;101591.41;5046349;28;20702;-58
2022/10/28 06:51:51;;;;;;;;;;;;;;;13.98;85.58;101581.53;5047228;28;19974;-58
2022/10/28 06:54:16;;;;;;;;;;;;;;;13.97;85.65;101578.03;5046228;28;20504;-58
2022/10/28 06:56:44;;;;;;;;;;;;;;;13.98;85.64;101589.56;5040045;28;20016;-58
2022/10/28 06:59:09;;;;;;;;;;;;;;;13.99;85.83;101593.88;5048105;28;19917;-58
2022/10/28 07:01:34;;;;;;;;;;;;;;;14.00;85.90;101584.88;5047332;28;19972;-59
2022/10/28 07:03:59;;;;;;;;;;;;;;;14.00;85.82;101593.72;5046421;28;19928;-58
2022/10/28 07:06:24;;;;;;;;;;;;;;;14.00;86.14;101596.38;5044833;28;19974;-59
2022/10/28 07:08:50;;;;;;;;;;;;;;;14.02;85.97;101596.22;5051961;28;19924;-57
2022/10/28 07:11:15;;;;;;;;;;;;;;;14.04;85.93;101595.03;5044839;28;19920;-59
2022/10/28 07:13:40;;;;;;;;;;;;;;;14.06;85.95;101589.50;5039835;28;19920;-59
2022/10/28 07:16:06;;;;;;;;;;;;;;;14.08;85.93;101584.81;5045994;28;19921;-58
2022/10/28 07:18:31;;;;;;;;;;;;;;;14.11;85.67;101592.47;5047645;28;19917;-58
2022/10/28 07:21:00;;;;;;;;;;;;;;;14.13;86.04;101588.63;5046526;28;19920;-60
2022/10/28 07:23:25;;;;;;;;;;;;;;;14.15;86.07;101589.28;5040228;28;19924;-59
2022/10/28 07:25:52;;;;;;;;;;;;;;;14.19;86.15;101589.78;5045548;28;19924;-59
2022/10/28 07:28:17;;;;;;;;;;;;;;;14.21;86.02;101599.28;5057825;28;19916;-59
2022/10/28 07:30:42;;;;;;;;;;;;;;;14.26;86.16;101607.59;5029971;28;19912;-59
2022/10/28 07:33:07;;;;;;;;;;;;;;;14.31;86.16;101607.06;5042168;28;20411;-60
2022/10/28 07:35:32;;;;;;;;;;;;;;;14.35;86.52;101602.19;5048489;28;19921;-58
2022/10/28 07:37:57;;;;;;;;;;;;;;;14.40;86.74;101610.50;5046889;28;20403;-59
2022/10/28 07:40:23;;;;;;;;;;;;;;;14.45;86.69;101614.34;5047345;28;19955;-59
2022/10/28 07:42:49;;;;;;;;;;;;;;;14.50;86.55;101612.00;5046260;28;19916;-60
2022/10/28 07:45:14;;;;;;;;;;;;;;;14.57;86.25;101602.25;5048542;28;19924;-59
2022/10/28 07:47:39;;;;;;;;;;;;;;;14.65;86.36;101592.50;5040702;28;19924;-58
2022/10/28 07:50:05;;;;;;;;;;;;;;;14.72;86.38;101601.47;5044316;28;19917;-59
2022/10/28 07:52:30;;;;;;;;;;;;;;;14.81;86.24;101606.59;5045092;28;20025;-60
2022/10/28 07:54:55;;;;;;;;;;;;;;;14.88;86.03;101601.34;5047161;28;20444;-60
2022/10/28 07:57:20;;;;;;;;;;;;;;;14.97;86.53;101599.41;5043312;28;19921;-60
2022/10/28 07:59:45;;;;;;;;;;;;;;;15.05;86.45;101600.22;5023501;28;19913;-60
2022/10/28 08:02:18;;;;;;;;;;;;;;;15.14;86.37;101596.44;5038628;28;19924;-61
2022/10/28 08:04:44;;;;;;;;;;;;;;;15.24;86.87;101598.84;5045230;28;19939;-61
2022/10/28 08:07:09;;;;;;;;;;;;;;;15.34;86.85;101595.91;5047809;28;20384;-61
2022/10/28 08:09:34;;;;;;;;;;;;;;;15.43;86.66;101598.31;5051464;28;19919;-61
2022/10/28 08:11:59;;;;;;;;;;;;;;;15.54;86.76;101601.53;5048442;28;19959;-61
2022/10/28 08:14:25;;;;;;;;;;;;;;;15.62;87.18;101604.16;5046459;28;19917;-61
2022/10/28 08:16:50;;;;;;;;;;;;;;;15.71;87.07;101598.53;5034841;28;19924;-61
2022/10/28 08:19:15;;;;;;;;;;;;;;;15.82;86.93;101607.09;5043810;28;19920;-61
2022/10/28 08:21:40;;;;;;;;;;;;;;;15.88;86.95;101607.19;5044748;28;19962;-61
2022/10/28 08:24:05;;;;;;;;;;;;;;;15.97;87.32;101607.94;5048305;28;19920;-61
2022/10/28 08:26:31;;;;;;;;;;;;;;;16.04;87.28;101616.88;5049213;28;19920;-61
2022/10/28 08:28:57;;;;;;;;;;;;;;;16.16;87.45;101625.25;5045662;28;20004;-61
2022/10/28 08:31:22;;;;;;;;;;;;;;;16.25;87.35;101624.97;5046756;28;20380;-59
2022/10/28 08:33:47;;;;;;;;;;;;;;;16.37;87.11;101625.28;5040316;28;19935;-61
2022/10/28 08:36:14;;;;;;;;;;;;;;;16.47;86.38;101619.63;5048693;28;20339;-61
2022/10/28 08:38:39;;;;;;;;;;;;;;;16.61;86.03;101622.25;5039566;28;19923;-61
2022/10/28 08:41:04;;;;;;;;;;;;;;;16.72;85.70;101619.09;5045021;28;19912;-61
2022/10/28 08:43:48;;;;;;;;;;;;;;;16.83;84.95;101624.97;5046478;28;19917;-61
2022/10/28 08:46:21;;;;;;;;;;;;;;;16.94;84.80;101625.28;5045873;28;19921;-61
2022/10/28 08:48:46;;;;;;;;;;;;;;;17.04;84.80;101616.88;5048746;28;19935;-61
2022/10/28 08:51:18;;;;;;;;;;;;;;;17.14;84.67;101611.19;5046681;28;20388;-60
2022/10/28 08:53:49;;;;;;;;;;;;;;;17.23;84.76;101605.47;5050830;28;20414;-61
2022/10/28 08:56:22;;;;;;;;;;;;;;;17.30;84.58;101611.72;5044823;28;19917;-61
2022/10/28 08:58:48;;;;;;;;;;;;;;;17.41;83.97;101617.59;5057708;28;19923;-60
2022/10/28 09:01:21;;;;;;;;;;;;;;;17.50;83.84;101616.41;5047700;28;19912;-61
2022/10/28 09:03:49;;;;;;;;;;;;;;;17.57;82.95;101615.41;5050182;28;20442;-61
2022/10/28 09:06:14;;;;;;;;;;;;;;;17.65;82.80;101609.91;5046810;28;20054;-61
2022/10/28 09:08:41;;;;;;;;;;;;;;;17.74;82.21;101613.28;5050338;28;20004;-60
2022/10/28 09:11:09;;;;;;;;;;;;;;;17.81;81.43;101621.38;5045236;28;20451;-61
2022/10/28 09:13:55;;;;;;;;;;;;;;;17.88;81.18;101611.47;5044763;28;20003;-61
2022/10/28 09:16:26;;;;;;;;;;;;;;;17.94;81.26;101610.69;5052996;28;19921;-61
2022/10/28 09:18:53;;;;;;;;;;;;;;;18.00;81.57;101625.19;5050775;28;19924;-61
2022/10/28 09:21:28;;;;;;;;;;;;;;;18.01;81.09;101618.78;5062667;28;20296;-61
2022/10/28 09:23:55;;;;;;;;;;;;;;;18.08;80.92;101617.78;5048689;28;19913;-61
2022/10/28 09:26:38;;;;;;;;;;;;;;;18.13;80.58;101626.06;5038394;28;19969;-61
2022/10/28 09:29:12;;;;;;;;;;;;;;;18.21;80.46;101630.41;5047462;28;19928;-61
2022/10/28 09:31:41;;;;;;;;;;;;;;;18.30;80.21;101628.41;5051151;28;20400;-60
2022/10/28 09:34:29;;;;;;;;;;;;;;;18.39;79.96;101637.94;5052156;28;19921;-61
2022/10/28 09:36:57;;;;;;;;;;;;;;;18.46;79.02;101636.91;5053711;28;19946;-61
2022/10/28 09:39:26;;;;;;;;;;;;;;;18.51;79.08;101629.09;5043975;28;19924;-59
2022/10/28 09:41:51;;;;;;;;;;;;;;;18.56;78.94;101633.84;5052290;28;20396;-58
2022/10/28 09:44:25;;;;;;;;;;;;;;;18.62;78.72;101641.13;5058911;28;20177;-58
2022/10/28 09:46:53;;;;;;;;;;;;;;;18.68;78.50;101637.63;5057393;28;19924;-58
2022/10/28 09:49:30;;;;;;;;;;;;;;;18.76;78.32;101640.09;5047135;28;20442;-58
2022/10/28 09:52:09;;;;;;;;;;;;;;;18.81;77.88;101626.06;5054247;28;19920;-59
2022/10/28 09:54:37;;;;;;;;;;;;;;;18.90;77.69;101624.00;5049569;28;19974;-58
2022/10/28 09:57:03;;;;;;;;;;;;;;;18.97;77.46;101630.19;5057405;28;20320;-58
2022/10/28 09:59:28;;;;;;;;;;;;;;;19.05;76.92;101633.50;5051226;28;20435;-58
2022/10/28 10:01:53;;;;;;;;;;;;;;;19.14;76.89;101631.47;5048945;28;19971;-58
2022/10/28 10:04:22;;;;;;;;;;;;;;;19.21;76.84;101626.88;5050187;28;19939;-58
2022/10/28 10:06:50;;;;;;;;;;;;;;;19.29;76.72;101640.13;5045632;28;19921;-58
2022/10/28 10:09:19;;;;;;;;;;;;;;;19.39;77.24;101632.47;5048155;28;19916;-59
2022/10/28 10:11:45;;;;;;;;;;;;;;;19.47;76.59;101634.94;5047627;28;19920;-59
2022/10/28 10:14:14;;;;;;;;;;;;;;;19.55;76.34;101635.78;5050160;28;19940;-59
2022/10/28 10:16:48;;;;;;;;;;;;;;;19.60;76.02;101633.28;5057936;28;19931;-59
2022/10/28 10:19:13;;;;;;;;;;;;;;;19.69;75.35;101640.13;5050482;28;19944;-59
2022/10/28 10:21:46;;;;;;;;;;;;;;;19.75;74.19;101640.09;5047409;28;19916;-59
2022/10/28 10:24:20;;;;;;;;;;;;;;;19.84;73.60;101623.69;5044718;28;20391;-59
2022/10/28 10:26:45;;;;;;;;;;;;;;;19.92;73.74;101623.44;5049792;28;19921;-58
2022/10/28 10:29:12;;;;;;;;;;;;;;;19.95;72.54;101617.63;5045279;28;19917;-59
2022/10/28 10:31:37;;;;;;;;;;;;;;;19.98;72.51;101615.34;5044392;28;20058;-59
2022/10/28 10:34:02;;;;;;;;;;;;;;;20.08;72.55;101622.97;5047518;28;20004;-58
2022/10/28 10:36:27;;;;;;;;;;;;;;;20.11;71.88;101617.97;5045936;28;19947;-58
2022/10/28 10:38:54;;;;;;;;;;;;;;;20.18;71.84;101617.09;5044940;28;20007;-58
2022/10/28 10:41:35;;;;;;;;;;;;;;;20.22;71.84;101616.47;5046507;28;19917;-59
2022/10/28 10:44:00;;;;;;;;;;;;;;;20.27;71.17;101615.84;5056190;28;20411;-58
2022/10/28 10:46:26;;;;;;;;;;;;;;;20.31;70.44;101606.28;5050268;28;20003;-59
2022/10/28 10:49:13;;;;;;;;;;;;;;;20.38;70.18;101597.09;5046390;28;20015;-58
2022/10/28 10:51:40;;;;;;;;;;;;;;;20.48;69.76;101612.81;5047932;28;19924;-59
2022/10/28 10:54:12;;;;;;;;;;;;;;;20.57;68.99;101605.31;5048348;28;19924;-59
2022/10/28 10:56:37;;;;;;;;;;;;;;;20.65;68.87;101615.84;5045907;28;19920;-59
2022/10/28 10:59:04;;;;;;;;;;;;;;;20.70;67.99;101616.00;5049651;28;20406;-58
2022/10/28 11:01:34;;;;;;;;;;;;;;;20.76;67.90;101615.13;5052104;28;19959;-59
2022/10/28 11:04:07;;;;;;;;;;;;;;;20.83;67.92;101620.50;5044870;28;19916;-59
2022/10/28 11:06:35;;;;;;;;;;;;;;;20.88;67.63;101623.38;5046753;28;20388;-59
2022/10/28 11:09:19;;;;;;;;;;;;;;;20.96;67.55;101617.69;5038577;28;19921;-59
2022/10/28 11:11:44;;;;;;;;;;;;;;;21.03;67.19;101613.03;5045777;28;19952;-59
2022/10/28 11:14:09;;;;;;;;;;;;;;;21.10;66.63;101599.47;5049250;28;19963;-59
2022/10/28 11:16:51;;;;;;;;;;;;;;;21.11;66.01;101595.75;5040528;28;20391;-59
2022/10/28 11:19:19;;;;;;;;;;;;;;;21.14;65.92;101601.53;5045465;28;19963;-58
2022/10/28 11:21:49;;;;;;;;;;;;;;;21.14;66.17;101603.41;5043926;28;19931;-59
2022/10/28 11:24:14;;;;;;;;;;;;;;;21.13;65.20;101607.16;5043590;28;20309;-58
2022/10/28 11:26:44;;;;;;;;;;;;;;;21.13;64.66;101596.34;5043096;28;20388;-59
2022/10/28 11:29:13;;;;;;;;;;;;;;;21.13;64.67;101597.19;5039492;28;20059;-59
2022/10/28 11:31:45;;;;;;;;;;;;;;;21.11;64.39;101591.19;5039188;28;20040;-59
2022/10/28 11:34:29;;;;;;;;;;;;;;;21.09;64.67;101593.25;5040759;28;19917;-59
2022/10/28 11:36:54;;;;;;;;;;;;;;;21.09;64.49;101592.41;5044189;28;20023;-58
2022/10/28 11:39:52;;;;;;;;;;;;;;;21.07;64.63;101597.22;5050589;28;20043;-59
2022/10/28 11:42:26;;;;;;;;;;;;;;;21.08;64.69;101623.19;4985925;28;19917;-58
2022/10/28 11:45:02;;;;;;;;;;;;;;;21.09;64.90;101614.84;5046207;28;20459;-59
2022/10/28 11:47:37;;;;;;;;;;;;;;;21.09;64.10;101614.03;5045791;28;19916;-58
2022/10/28 11:50:20;;;;;;;;;;;;;;;21.10;63.99;101605.69;5045220;28;19920;-59
2022/10/28 11:53:04;;;;;;;;;;;;;;;21.11;63.88;101610.09;5047880;28;19913;-58
2022/10/28 11:55:30;;;;;;;;;;;;;;;21.10;64.30;101605.69;5041693;28;19920;-58
2022/10/28 11:58:14;;;;;;;;;;;;;;;21.15;64.10;101619.41;5049716;28;19916;-59
2022/10/28 12:01:08;;;;;;;;;;;;;;;21.18;63.63;101618.94;5049710;28;20388;-59
2022/10/28 12:03:42;;;;;;;;;;;;;;;21.19;63.44;101617.06;5038741;28;19913;-59
2022/10/28 12:06:23;;;;;;;;;;;;;;;21.18;63.29;101618.13;5047091;28;19950;-58
2022/10/28 12:08:51;;;;;;;;;;;;;;;21.17;63.76;101622.69;5048765;28;19970;-58
2022/10/28 12:11:31;;;;;;;;;;;;;;;21.16;63.59;101631.84;5045048;28;19978;-59
2022/10/28 12:14:02;;;;;;;;;;;;;;;21.13;63.46;101632.31;5045890;28;20391;-59
2022/10/28 12:16:36;;;;;;;;;;;;;;;21.12;63.85;101636.06;5045586;28;20008;-59
2022/10/28 12:19:07;;;;;;;;;;;;;;;21.09;64.02;101636.47;5045926;28;19952;-59
2022/10/28 12:21:38;;;;;;;;;;;;;;;21.09;63.84;101625.66;5051391;28;19932;-58
2022/10/28 12:24:05;;;;;;;;;;;;;;;21.08;64.11;101628.59;5032052;28;19931;-58
2022/10/28 12:26:42;;;;;;;;;;;;;;;21.08;63.44;101631.28;5047974;28;19917;-59
2022/10/28 12:29:32;;;;;;;;;;;;;;;21.09;63.96;101633.75;5045803;28;19931;-59
2022/10/28 12:32:07;;;;;;;;;;;;;;;21.10;64.03;101638.13;5045725;28;19925;-58
2022/10/28 12:34:34;;;;;;;;;;;;;;;21.11;63.82;101633.56;5051490;28;19913;-59
2022/10/28 12:37:03;;;;;;;;;;;;;;;21.08;63.42;101637.50;5046163;28;19917;-59
2022/10/28 12:39:38;;;;;;;;;;;;;;;21.11;64.26;101638.97;5059167;28;20292;-59
2022/10/28 12:42:26;;;;;;;;;;;;;;;21.12;64.36;101636.06;5053219;28;19931;-59